sensor_id;sensor_type;location;lat;lon;timestamp;pressure;altitude;pressure_sealevel;temperature;humidity
47985;BME280;33753;52.912;-7.342;2023-04-27T00:02:22;100143.75;;;9.01;100.00
47985;BME280;33753;52.912;-7.342;2023-04-27T00:04:50;100140.22;;;9.01;100.00
47985;BME280;33753;52.912;-7.342;2023-04-27T00:07:19;100138.34;;;9.01;100.00
47985;BME280;33753;52.912;-7.342;2023-04-27T00:09:48;100132.97;;;9.01;100.00
47985;BME280;33753;52.912;-7.342;2023-04-27T00:12:17;100127.06;;;8.97;100.00
47985;BME280;33753;52.912;-7.342;2023-04-27T00:14:46;100136.66;;;9.00;100.00
47985;BME280;33753;52.912;-7.342;2023-04-27T00:17:16;100133.97;;;9.00;100.00
47985;BME280;33753;52.912;-7.342;2023-04-27T00:19:44;100124.03;;;9.01;100.00
47985;BME280;33753;52.912;-7.342;2023-04-27T00:22:13;100123.69;;;8.95;100.00
47985;BME280;33753;52.912;-7.342;2023-04-27T00:24:41;100117.81;;;8.92;100.00
47985;BME280;33753;52.912;-7.342;2023-04-27T00:27:10;100112.41;;;8.92;100.00
47985;BME280;33753;52.912;-7.342;2023-04-27T00:29:39;100105.66;;;8.88;100.00
47985;BME280;33753;52.912;-7.342;2023-04-27T00:32:08;100101.44;;;8.85;100.00
47985;BME280;33753;52.912;-7.342;2023-04-27T00:34:38;100097.91;;;8.85;100.00
47985;BME280;33753;52.912;-7.342;2023-04-27T00:37:07;100106.19;;;8.83;100.00
47985;BME280;33753;52.912;-7.342;2023-04-27T00:39:35;100088.47;;;8.80;100.00
47985;BME280;33753;52.912;-7.342;2023-04-27T00:42:04;100085.78;;;8.80;100.00
47985;BME280;33753;52.912;-7.342;2023-04-27T00:44:37;100088.47;;;8.80;100.00
47985;BME280;33753;52.912;-7.342;2023-04-27T00:47:05;100088.47;;;8.80;100.00
47985;BME280;33753;52.912;-7.342;2023-04-27T00:49:34;100088.47;;;8.80;100.00
47985;BME280;33753;52.912;-7.342;2023-04-27T00:52:04;100077.69;;;8.80;100.00
47985;BME280;33753;52.912;-7.342;2023-04-27T00:54:34;100076.53;;;8.83;100.00
47985;BME280;33753;52.912;-7.342;2023-04-27T00:57:02;100076.53;;;8.83;100.00
47985;BME280;33753;52.912;-7.342;2023-04-27T00:59:31;100078.00;;;8.86;100.00
47985;BME280;33753;52.912;-7.342;2023-04-27T01:01:59;100070.25;;;8.82;100.00
47985;BME280;33753;52.912;-7.342;2023-04-27T01:04:28;100055.44;;;8.87;100.00
47985;BME280;33753;52.912;-7.342;2023-04-27T01:06:58;100049.03;;;8.79;100.00
47985;BME280;33753;52.912;-7.342;2023-04-27T01:09:32;100043.97;;;8.85;100.00
47985;BME280;33753;52.912;-7.342;2023-04-27T01:12:00;100032.84;;;8.79;100.00
47985;BME280;33753;52.912;-7.342;2023-04-27T01:14:29;100030.50;;;8.85;100.00
47985;BME280;33753;52.912;-7.342;2023-04-27T01:16:57;100034.19;;;8.84;100.00
47985;BME280;33753;52.912;-7.342;2023-04-27T01:19:26;100034.19;;;8.84;100.00
47985;BME280;33753;52.912;-7.342;2023-04-27T01:21:54;100028.81;;;8.84;100.00
47985;BME280;33753;52.912;-7.342;2023-04-27T01:24:25;100024.25;;;8.84;100.00
47985;BME280;33753;52.912;-7.342;2023-04-27T01:26:54;100027.63;;;8.86;100.00
47985;BME280;33753;52.912;-7.342;2023-04-27T01:29:22;100027.13;;;8.82;100.00
47985;BME280;33753;52.912;-7.342;2023-04-27T01:31:51;100024.75;;;8.79;100.00
47985;BME280;33753;52.912;-7.342;2023-04-27T01:34:21;100023.75;;;8.80;100.00
47985;BME280;33753;52.912;-7.342;2023-04-27T01:36:49;100021.72;;;8.82;100.00
47985;BME280;33753;52.912;-7.342;2023-04-27T01:39:20;100020.88;;;8.82;100.00
47985;BME280;33753;52.912;-7.342;2023-04-27T01:41:49;100027.13;;;8.82;100.00
47985;BME280;33753;52.912;-7.342;2023-04-27T01:44:18;100015.97;;;8.86;100.00
47985;BME280;33753;52.912;-7.342;2023-04-27T01:46:49;100017.00;;;8.85;100.00
47985;BME280;33753;52.912;-7.342;2023-04-27T01:49:18;100017.66;;;8.87;100.00
47985;BME280;33753;52.912;-7.342;2023-04-27T01:51:47;100012.63;;;8.84;100.00
47985;BME280;33753;52.912;-7.342;2023-04-27T01:54:15;100013.97;;;8.88;100.00
47985;BME280;33753;52.912;-7.342;2023-04-27T01:56:44;100020.00;;;8.90;100.00
47985;BME280;33753;52.912;-7.342;2023-04-27T01:59:14;100014.28;;;8.93;100.00
47985;BME280;33753;52.912;-7.342;2023-04-27T02:01:42;100011.94;;;8.90;100.00
47985;BME280;33753;52.912;-7.342;2023-04-27T02:04:10;100018.00;;;8.92;100.00
47985;BME280;33753;52.912;-7.342;2023-04-27T02:06:39;100011.94;;;8.90;100.00
47985;BME280;33753;52.912;-7.342;2023-04-27T02:09:08;100012.63;;;8.92;100.00
47985;BME280;33753;52.912;-7.342;2023-04-27T02:11:39;100006.88;;;8.87;100.00
47985;BME280;33753;52.912;-7.342;2023-04-27T02:14:07;99999.44;;;8.89;100.00
47985;BME280;33753;52.912;-7.342;2023-04-27T02:16:37;100003.19;;;8.88;100.00
47985;BME280;33753;52.912;-7.342;2023-04-27T02:19:05;99990.00;;;8.93;100.00
47985;BME280;33753;52.912;-7.342;2023-04-27T02:21:34;99990.00;;;8.93;100.00
47985;BME280;33753;52.912;-7.342;2023-04-27T02:24:02;99977.53;;;8.92;100.00
47985;BME280;33753;52.912;-7.342;2023-04-27T02:26:31;99976.69;;;8.91;100.00
47985;BME280;33753;52.912;-7.342;2023-04-27T02:28:59;99981.91;;;8.93;100.00
47985;BME280;33753;52.912;-7.342;2023-04-27T02:31:29;99982.94;;;8.92;100.00
47985;BME280;33753;52.912;-7.342;2023-04-27T02:33:59;99978.38;;;8.92;100.00
47985;BME280;33753;52.912;-7.342;2023-04-27T02:36:27;99970.31;;;8.84;100.00
47985;BME280;33753;52.912;-7.342;2023-04-27T02:38:57;99965.06;;;8.91;100.00
47985;BME280;33753;52.912;-7.342;2023-04-27T02:41:25;99972.81;;;8.94;100.00
47985;BME280;33753;52.912;-7.342;2023-04-27T02:43:54;99962.03;;;8.94;100.00
47985;BME280;33753;52.912;-7.342;2023-04-27T02:46:23;99964.72;;;8.94;100.00
47985;BME280;33753;52.912;-7.342;2023-04-27T02:48:54;99973.50;;;8.96;100.00
47985;BME280;33753;52.912;-7.342;2023-04-27T02:51:24;99974.16;;;8.98;100.00
47985;BME280;33753;52.912;-7.342;2023-04-27T02:53:53;99969.59;;;8.98;100.00
47985;BME280;33753;52.912;-7.342;2023-04-27T02:56:22;99970.28;;;9.01;100.00
47985;BME280;33753;52.912;-7.342;2023-04-27T02:58:50;99956.78;;;9.01;100.00
47985;BME280;33753;52.912;-7.342;2023-04-27T03:01:19;99959.47;;;9.01;100.00
47985;BME280;33753;52.912;-7.342;2023-04-27T03:03:48;99961.00;;;9.03;100.00
47985;BME280;33753;52.912;-7.342;2023-04-27T03:06:17;99951.56;;;8.99;100.00
47985;BME280;33753;52.912;-7.342;2023-04-27T03:08:46;99949.53;;;9.01;100.00
47985;BME280;33753;52.912;-7.342;2023-04-27T03:11:14;99954.91;;;9.01;100.00
47985;BME280;33753;52.912;-7.342;2023-04-27T03:13:43;99952.03;;;9.03;100.00
47985;BME280;33753;52.912;-7.342;2023-04-27T03:16:12;99951.69;;;9.06;100.00
47985;BME280;33753;52.912;-7.342;2023-04-27T03:18:40;99950.50;;;9.08;100.00
47985;BME280;33753;52.912;-7.342;2023-04-27T03:21:09;99954.38;;;9.06;100.00
47985;BME280;33753;52.912;-7.342;2023-04-27T03:23:38;99957.94;;;9.06;100.00
47985;BME280;33753;52.912;-7.342;2023-04-27T03:26:08;99957.25;;;9.04;100.00
47985;BME280;33753;52.912;-7.342;2023-04-27T03:28:37;99960.81;;;9.05;100.00
47985;BME280;33753;52.912;-7.342;2023-04-27T03:31:06;99964.34;;;9.05;100.00
47985;BME280;33753;52.912;-7.342;2023-04-27T03:33:35;99964.00;;;9.08;100.00
47985;BME280;33753;52.912;-7.342;2023-04-27T03:36:04;99953.19;;;9.08;100.00
47985;BME280;33753;52.912;-7.342;2023-04-27T03:38:33;99945.78;;;9.10;100.00
47985;BME280;33753;52.912;-7.342;2023-04-27T03:41:02;99942.59;;;9.07;100.00
47985;BME280;33753;52.912;-7.342;2023-04-27T03:43:32;99957.41;;;9.11;100.00
47985;BME280;33753;52.912;-7.342;2023-04-27T03:46:01;99946.44;;;9.12;100.00
47985;BME280;33753;52.912;-7.342;2023-04-27T03:48:30;99946.81;;;9.09;100.00
47985;BME280;33753;52.912;-7.342;2023-04-27T03:50:59;99949.78;;;9.14;100.00
47985;BME280;33753;52.912;-7.342;2023-04-27T03:53:27;99943.22;;;9.17;100.00
47985;BME280;33753;52.912;-7.342;2023-04-27T03:55:56;99943.91;;;9.19;100.00
47985;BME280;33753;52.912;-7.342;2023-04-27T03:58:26;99945.72;;;9.19;100.00
47985;BME280;33753;52.912;-7.342;2023-04-27T04:01:25;99943.72;;;9.21;100.00
47985;BME280;33753;52.912;-7.342;2023-04-27T04:03:53;99942.03;;;9.20;100.00
47985;BME280;33753;52.912;-7.342;2023-04-27T04:06:22;99943.72;;;9.21;100.00
47985;BME280;33753;52.912;-7.342;2023-04-27T04:08:50;99932.25;;;9.19;100.00
47985;BME280;33753;52.912;-7.342;2023-04-27T04:11:20;99941.66;;;9.23;100.00
47985;BME280;33753;52.912;-7.342;2023-04-27T04:13:52;99938.31;;;9.21;100.00
47985;BME280;33753;52.912;-7.342;2023-04-27T04:16:20;99934.47;;;9.15;100.00
47985;BME280;33753;52.912;-7.342;2023-04-27T04:18:53;99935.25;;;9.24;100.00
47985;BME280;33753;52.912;-7.342;2023-04-27T04:21:21;99933.94;;;9.20;100.00
47985;BME280;33753;52.912;-7.342;2023-04-27T04:23:50;99928.84;;;9.25;100.00
47985;BME280;33753;52.912;-7.342;2023-04-27T04:26:18;99920.75;;;9.25;100.00
47985;BME280;33753;52.912;-7.342;2023-04-27T04:28:49;99917.72;;;9.28;100.00
47985;BME280;33753;52.912;-7.342;2023-04-27T04:31:18;99924.13;;;9.27;100.00
47985;BME280;33753;52.912;-7.342;2023-04-27T04:33:48;99925.81;;;9.28;100.00
47985;BME280;33753;52.912;-7.342;2023-04-27T04:36:19;99925.97;;;9.26;100.00
47985;BME280;33753;52.912;-7.342;2023-04-27T04:38:51;99914.09;;;9.36;100.00
47985;BME280;33753;52.912;-7.342;2023-04-27T04:41:20;99909.22;;;9.39;100.00
47985;BME280;33753;52.912;-7.342;2023-04-27T04:43:49;99906.69;;;9.38;100.00
47985;BME280;33753;52.912;-7.342;2023-04-27T04:46:18;99907.53;;;9.38;100.00
47985;BME280;33753;52.912;-7.342;2023-04-27T04:48:49;99905.50;;;9.40;100.00
47985;BME280;33753;52.912;-7.342;2023-04-27T04:51:22;99892.66;;;9.42;100.00
47985;BME280;33753;52.912;-7.342;2023-04-27T04:53:50;99891.28;;;9.46;100.00
47985;BME280;33753;52.912;-7.342;2023-04-27T04:56:21;99892.63;;;9.50;100.00
47985;BME280;33753;52.912;-7.342;2023-04-27T04:58:49;99907.66;;;9.45;100.00
47985;BME280;33753;52.912;-7.342;2023-04-27T05:01:17;99907.66;;;9.45;100.00
47985;BME280;33753;52.912;-7.342;2023-04-27T05:03:48;99912.34;;;9.51;100.00
47985;BME280;33753;52.912;-7.342;2023-04-27T05:06:28;99907.44;;;9.55;100.00
47985;BME280;33753;52.912;-7.342;2023-04-27T05:09:02;99902.88;;;9.55;100.00
47985;BME280;33753;52.912;-7.342;2023-04-27T05:11:32;99911.63;;;9.57;100.00
47985;BME280;33753;52.912;-7.342;2023-04-27T05:14:00;99901.84;;;9.56;100.00
47985;BME280;33753;52.912;-7.342;2023-04-27T05:16:29;99909.06;;;9.64;100.00
47985;BME280;33753;52.912;-7.342;2023-04-27T05:18:57;99901.78;;;9.64;100.00
47985;BME280;33753;52.912;-7.342;2023-04-27T05:21:27;99895.56;;;9.64;100.00
47985;BME280;33753;52.912;-7.342;2023-04-27T05:23:55;99896.03;;;9.67;100.00
47985;BME280;33753;52.912;-7.342;2023-04-27T05:26:23;99891.09;;;9.71;100.00
47985;BME280;33753;52.912;-7.342;2023-04-27T05:28:52;99887.94;;;9.67;100.00
47985;BME280;33753;52.912;-7.342;2023-04-27T05:31:20;99891.09;;;9.71;100.00
47985;BME280;33753;52.912;-7.342;2023-04-27T05:33:48;99885.34;;;9.74;100.00
47985;BME280;33753;52.912;-7.342;2023-04-27T05:36:16;99881.44;;;9.77;100.00
47985;BME280;33753;52.912;-7.342;2023-04-27T05:38:46;99889.09;;;9.73;100.00
47985;BME280;33753;52.912;-7.342;2023-04-27T05:41:15;99884.97;;;9.77;100.00
47985;BME280;33753;52.912;-7.342;2023-04-27T05:43:44;99887.75;;;9.69;100.00
47985;BME280;33753;52.912;-7.342;2023-04-27T05:46:12;99888.41;;;9.71;100.00
47985;BME280;33753;52.912;-7.342;2023-04-27T05:48:40;99884.97;;;9.77;100.00
47985;BME280;33753;52.912;-7.342;2023-04-27T05:51:08;99884.34;;;9.75;100.00
47985;BME280;33753;52.912;-7.342;2023-04-27T05:53:37;99876.72;;;9.79;100.00
47985;BME280;33753;52.912;-7.342;2023-04-27T05:56:08;99873.34;;;9.77;100.00
47985;BME280;33753;52.912;-7.342;2023-04-27T05:58:37;99877.72;;;9.78;100.00
47985;BME280;33753;52.912;-7.342;2023-04-27T06:01:05;99863.03;;;9.80;100.00
47985;BME280;33753;52.912;-7.342;2023-04-27T06:03:33;99875.88;;;9.78;100.00
47985;BME280;33753;52.912;-7.342;2023-04-27T06:06:03;99862.34;;;9.78;100.00
47985;BME280;33753;52.912;-7.342;2023-04-27T06:08:31;99861.34;;;9.79;100.00
47985;BME280;33753;52.912;-7.342;2023-04-27T06:11:01;99865.19;;;9.85;100.00
47985;BME280;33753;52.912;-7.342;2023-04-27T06:13:31;99862.66;;;9.83;100.00
47985;BME280;33753;52.912;-7.342;2023-04-27T06:15:59;99857.25;;;9.83;100.00
47985;BME280;33753;52.912;-7.342;2023-04-27T06:18:27;99853.38;;;9.86;100.00
47985;BME280;33753;52.912;-7.342;2023-04-27T06:21:00;99853.63;;;9.91;100.00
47985;BME280;33753;52.912;-7.342;2023-04-27T06:23:28;99845.53;;;9.91;100.00
47985;BME280;33753;52.912;-7.342;2023-04-27T06:25:56;99850.22;;;9.97;100.00
47985;BME280;33753;52.912;-7.342;2023-04-27T06:28:25;99850.69;;;10.01;100.00
47985;BME280;33753;52.912;-7.342;2023-04-27T06:30:55;99857.09;;;10.00;100.00
47985;BME280;33753;52.912;-7.342;2023-04-27T06:33:23;99861.81;;;10.06;100.00
47985;BME280;33753;52.912;-7.342;2023-04-27T06:35:52;99853.88;;;10.05;100.00
47985;BME280;33753;52.912;-7.342;2023-04-27T06:38:20;99852.19;;;10.03;100.00
47985;BME280;33753;52.912;-7.342;2023-04-27T06:40:49;99854.34;;;10.08;100.00
47985;BME280;33753;52.912;-7.342;2023-04-27T06:43:17;99843.16;;;10.11;100.00
47985;BME280;33753;52.912;-7.342;2023-04-27T06:45:45;99842.88;;;10.06;100.00
47985;BME280;33753;52.912;-7.342;2023-04-27T06:48:15;99845.22;;;10.09;100.00
47985;BME280;33753;52.912;-7.342;2023-04-27T06:50:44;99848.56;;;10.11;100.00
47985;BME280;33753;52.912;-7.342;2023-04-27T06:53:12;99845.47;;;10.14;100.00
47985;BME280;33753;52.912;-7.342;2023-04-27T06:55:40;99843.28;;;10.18;100.00
47985;BME280;33753;52.912;-7.342;2023-04-27T06:58:11;99849.13;;;10.21;100.00
47985;BME280;33753;52.912;-7.342;2023-04-27T07:00:39;99846.28;;;10.23;100.00
47985;BME280;33753;52.912;-7.342;2023-04-27T07:03:07;99848.31;;;10.21;100.00
47985;BME280;33753;52.912;-7.342;2023-04-27T07:05:38;99838.69;;;10.18;100.00
47985;BME280;33753;52.912;-7.342;2023-04-27T07:08:06;99842.59;;;10.16;100.00
47985;BME280;33753;52.912;-7.342;2023-04-27T07:10:34;99833.66;;;10.15;100.00
47985;BME280;33753;52.912;-7.342;2023-04-27T07:13:03;99832.53;;;10.10;100.00
47985;BME280;33753;52.912;-7.342;2023-04-27T07:15:35;99839.44;;;10.12;100.00
47985;BME280;33753;52.912;-7.342;2023-04-27T07:18:03;99835.41;;;10.08;100.00
47985;BME280;33753;52.912;-7.342;2023-04-27T07:20:31;99837.38;;;10.14;100.00
47985;BME280;33753;52.912;-7.342;2023-04-27T07:23:01;99839.44;;;10.12;100.00
47985;BME280;33753;52.912;-7.342;2023-04-27T07:25:29;99842.44;;;10.17;100.00
47985;BME280;33753;52.912;-7.342;2023-04-27T07:27:58;99831.63;;;10.17;100.00
47985;BME280;33753;52.912;-7.342;2023-04-27T07:30:27;99831.97;;;10.14;100.00
47985;BME280;33753;52.912;-7.342;2023-04-27T07:32:56;99831.88;;;10.08;100.00
47985;BME280;33753;52.912;-7.342;2023-04-27T07:35:26;99831.78;;;10.16;100.00
47985;BME280;33753;52.912;-7.342;2023-04-27T07:37:54;99837.50;;;10.21;100.00
47985;BME280;33753;52.912;-7.342;2023-04-27T07:40:25;99833.03;;;10.28;100.00
47985;BME280;33753;52.912;-7.342;2023-04-27T07:42:54;99831.47;;;10.34;100.00
47985;BME280;33753;52.912;-7.342;2023-04-27T07:45:24;99830.28;;;10.36;100.00
47985;BME280;33753;52.912;-7.342;2023-04-27T07:47:58;99838.19;;;10.38;100.00
47985;BME280;33753;52.912;-7.342;2023-04-27T07:50:26;99831.47;;;10.34;100.00
47985;BME280;33753;52.912;-7.342;2023-04-27T07:52:55;99830.72;;;10.40;100.00
47985;BME280;33753;52.912;-7.342;2023-04-27T07:55:25;99825.59;;;10.45;100.00
47985;BME280;33753;52.912;-7.342;2023-04-27T07:57:55;99825.78;;;10.44;100.00
47985;BME280;33753;52.912;-7.342;2023-04-27T08:00:23;99816.75;;;10.51;100.00
47985;BME280;33753;52.912;-7.342;2023-04-27T08:02:52;99815.09;;;10.50;100.00
47985;BME280;33753;52.912;-7.342;2023-04-27T08:05:21;99800.44;;;10.45;100.00
47985;BME280;33753;52.912;-7.342;2023-04-27T08:07:50;99797.06;;;10.58;100.00
47985;BME280;33753;52.912;-7.342;2023-04-27T08:10:20;99792.97;;;10.62;100.00
47985;BME280;33753;52.912;-7.342;2023-04-27T08:12:50;99789.88;;;10.65;100.00
47985;BME280;33753;52.912;-7.342;2023-04-27T08:15:19;99793.63;;;10.64;100.00
47985;BME280;33753;52.912;-7.342;2023-04-27T08:17:48;99794.53;;;10.71;100.00
47985;BME280;33753;52.912;-7.342;2023-04-27T08:20:16;99788.09;;;10.72;100.00
47985;BME280;33753;52.912;-7.342;2023-04-27T08:22:44;99776.63;;;10.70;100.00
47985;BME280;33753;52.912;-7.342;2023-04-27T08:25:12;99778.31;;;10.71;100.00
47985;BME280;33753;52.912;-7.342;2023-04-27T08:27:41;99770.38;;;10.69;100.00
47985;BME280;33753;52.912;-7.342;2023-04-27T08:30:12;99768.13;;;10.73;100.00
47985;BME280;33753;52.912;-7.342;2023-04-27T08:32:40;99763.66;;;10.65;100.00
47985;BME280;33753;52.912;-7.342;2023-04-27T08:35:09;99765.34;;;10.66;100.00
47985;BME280;33753;52.912;-7.342;2023-04-27T08:37:37;99766.28;;;10.74;100.00
47985;BME280;33753;52.912;-7.342;2023-04-27T08:40:06;99763.66;;;10.80;100.00
47985;BME280;33753;52.912;-7.342;2023-04-27T08:42:35;99758.09;;;10.88;100.00
47985;BME280;33753;52.912;-7.342;2023-04-27T08:45:05;99756.97;;;10.98;100.00
47985;BME280;33753;52.912;-7.342;2023-04-27T08:47:35;99752.16;;;11.15;100.00
47985;BME280;33753;52.912;-7.342;2023-04-27T08:50:09;99738.94;;;11.27;100.00
47985;BME280;33753;52.912;-7.342;2023-04-27T08:52:37;99740.63;;;11.28;100.00
47985;BME280;33753;52.912;-7.342;2023-04-27T08:55:06;99724.88;;;11.38;100.00
47985;BME280;33753;52.912;-7.342;2023-04-27T08:57:35;99716.63;;;11.46;100.00
47985;BME280;33753;52.912;-7.342;2023-04-27T09:00:03;99711.13;;;11.39;100.00
47985;BME280;33753;52.912;-7.342;2023-04-27T09:02:46;99709.91;;;11.42;100.00
47985;BME280;33753;52.912;-7.342;2023-04-27T09:05:15;99701.66;;;11.50;100.00
47985;BME280;33753;52.912;-7.342;2023-04-27T09:07:54;99695.50;;;11.63;100.00
47985;BME280;33753;52.912;-7.342;2023-04-27T09:10:23;99698.50;;;11.75;100.00
47985;BME280;33753;52.912;-7.342;2023-04-27T09:12:57;99693.13;;;11.82;100.00
47985;BME280;33753;52.912;-7.342;2023-04-27T09:15:26;99685.03;;;11.88;100.00
47985;BME280;33753;52.912;-7.342;2023-04-27T09:17:56;99673.78;;;11.91;100.00
47985;BME280;33753;52.912;-7.342;2023-04-27T09:20:24;99663.25;;;12.03;100.00
47985;BME280;33753;52.912;-7.342;2023-04-27T09:22:54;99659.13;;;12.07;100.00
47985;BME280;33753;52.912;-7.342;2023-04-27T09:25:24;99664.53;;;12.14;100.00
47985;BME280;33753;52.912;-7.342;2023-04-27T09:27:53;99661.63;;;12.16;100.00
47985;BME280;33753;52.912;-7.342;2023-04-27T09:30:22;99666.31;;;12.35;100.00
47985;BME280;33753;52.912;-7.342;2023-04-27T09:32:51;99680.50;;;12.37;100.00
47985;BME280;33753;52.912;-7.342;2023-04-27T09:35:21;99661.28;;;12.32;100.00
47985;BME280;33753;52.912;-7.342;2023-04-27T09:37:50;99660.09;;;12.48;100.00
47985;BME280;33753;52.912;-7.342;2023-04-27T09:40:20;99661.78;;;12.49;100.00
47985;BME280;33753;52.912;-7.342;2023-04-27T09:42:52;99657.56;;;12.40;100.00
47985;BME280;33753;52.912;-7.342;2023-04-27T09:45:22;99653.38;;;12.31;100.00
47985;BME280;33753;52.912;-7.342;2023-04-27T09:47:50;99647.91;;;12.24;100.00
47985;BME280;33753;52.912;-7.342;2023-04-27T09:50:19;99650.38;;;12.12;100.00
47985;BME280;33753;52.912;-7.342;2023-04-27T09:52:49;99644.50;;;12.08;100.00
47985;BME280;33753;52.912;-7.342;2023-04-27T09:55:18;99651.06;;;11.92;100.00
47985;BME280;33753;52.912;-7.342;2023-04-27T09:57:50;99647.38;;;12.00;100.00
47985;BME280;33753;52.912;-7.342;2023-04-27T10:00:28;99650.25;;;11.92;100.00
47985;BME280;33753;52.912;-7.342;2023-04-27T10:03:02;99649.56;;;11.83;100.00
47985;BME280;33753;52.912;-7.342;2023-04-27T10:05:36;99647.19;;;12.02;100.00
47985;BME280;33753;52.912;-7.342;2023-04-27T10:08:08;99653.19;;;11.97;100.00
47985;BME280;33753;52.912;-7.342;2023-04-27T10:10:46;99648.63;;;11.98;100.00
47985;BME280;33753;52.912;-7.342;2023-04-27T10:13:21;99644.50;;;12.02;100.00
47985;BME280;33753;52.912;-7.342;2023-04-27T10:15:49;99648.31;;;12.21;100.00
47985;BME280;33753;52.912;-7.342;2023-04-27T10:18:24;99656.69;;;12.33;100.00
47985;BME280;33753;52.912;-7.342;2023-04-27T10:20:53;99654.63;;;12.41;100.00
47985;BME280;33753;52.912;-7.342;2023-04-27T10:23:23;99645.50;;;12.56;100.00
47985;BME280;33753;52.912;-7.342;2023-04-27T10:25:52;99639.94;;;12.77;100.00
47985;BME280;33753;52.912;-7.342;2023-04-27T10:28:20;99641.84;;;12.90;100.00
47985;BME280;33753;52.912;-7.342;2023-04-27T10:30:48;99635.56;;;12.96;100.00
47985;BME280;33753;52.912;-7.342;2023-04-27T10:33:21;99628.44;;;12.95;100.00
47985;BME280;33753;52.912;-7.342;2023-04-27T10:35:54;99625.09;;;13.20;100.00
47985;BME280;33753;52.912;-7.342;2023-04-27T10:38:27;99617.59;;;13.22;100.00
47985;BME280;33753;52.912;-7.342;2023-04-27T10:40:57;99607.59;;;13.36;100.00
47985;BME280;33753;52.912;-7.342;2023-04-27T10:43:27;99612.78;;;13.44;100.00
47985;BME280;33753;52.912;-7.342;2023-04-27T10:46:05;99619.50;;;13.42;100.00
47985;BME280;33753;52.912;-7.342;2023-04-27T10:48:34;99611.53;;;13.47;100.00
47985;BME280;33753;52.912;-7.342;2023-04-27T10:51:03;99606.53;;;13.30;100.00
47985;BME280;33753;52.912;-7.342;2023-04-27T10:53:34;99597.97;;;13.40;100.00
47985;BME280;33753;52.912;-7.342;2023-04-27T10:56:02;99592.53;;;13.34;100.00
47985;BME280;33753;52.912;-7.342;2023-04-27T10:58:32;99595.84;;;13.56;100.00
47985;BME280;33753;52.912;-7.342;2023-04-27T11:01:07;99582.47;;;13.61;100.00
47985;BME280;33753;52.912;-7.342;2023-04-27T11:03:35;99583.28;;;13.61;100.00
47985;BME280;33753;52.912;-7.342;2023-04-27T11:06:05;99586.22;;;13.60;100.00
47985;BME280;33753;52.912;-7.342;2023-04-27T11:08:42;99579.16;;;13.52;100.00
47985;BME280;33753;52.912;-7.342;2023-04-27T11:11:12;99580.00;;;13.39;100.00
47985;BME280;33753;52.912;-7.342;2023-04-27T11:13:42;99576.88;;;13.36;100.00
47985;BME280;33753;52.912;-7.342;2023-04-27T11:16:12;99573.94;;;13.30;100.00
47985;BME280;33753;52.912;-7.342;2023-04-27T11:18:40;99573.72;;;13.39;100.00
47985;BME280;33753;52.912;-7.342;2023-04-27T11:21:09;99565.78;;;13.37;100.00
47985;BME280;33753;52.912;-7.342;2023-04-27T11:23:39;99557.84;;;13.36;100.00
47985;BME280;33753;52.912;-7.342;2023-04-27T11:26:08;99567.91;;;13.42;100.00
47985;BME280;33753;52.912;-7.342;2023-04-27T11:28:36;99572.47;;;13.55;100.00
47985;BME280;33753;52.912;-7.342;2023-04-27T11:31:05;99565.34;;;13.60;100.00
47985;BME280;33753;52.912;-7.342;2023-04-27T11:33:33;99552.34;;;13.69;100.00
47985;BME280;33753;52.912;-7.342;2023-04-27T11:36:02;99554.03;;;13.57;100.00
47985;BME280;33753;52.912;-7.342;2023-04-27T11:38:33;99550.91;;;13.60;100.00
47985;BME280;33753;52.912;-7.342;2023-04-27T11:41:04;99551.25;;;13.83;100.00
47985;BME280;33753;52.912;-7.342;2023-04-27T11:43:33;99550.50;;;14.08;100.00
47985;BME280;33753;52.912;-7.342;2023-04-27T11:46:02;99550.84;;;14.18;100.00
47985;BME280;33753;52.912;-7.342;2023-04-27T11:48:30;99540.53;;;14.34;100.00
47985;BME280;33753;52.912;-7.342;2023-04-27T11:50:58;99539.50;;;14.28;100.00
47985;BME280;33753;52.912;-7.342;2023-04-27T11:53:30;99536.56;;;14.30;100.00
47985;BME280;33753;52.912;-7.342;2023-04-27T11:55:59;99532.03;;;14.17;100.00
47985;BME280;33753;52.912;-7.342;2023-04-27T11:58:33;99531.31;;;14.35;100.00
47985;BME280;33753;52.912;-7.342;2023-04-27T12:01:02;99530.19;;;14.43;100.00
47985;BME280;33753;52.912;-7.342;2023-04-27T12:03:30;99520.44;;;14.60;100.00
47985;BME280;33753;52.912;-7.342;2023-04-27T12:05:59;99521.16;;;14.81;100.00
47985;BME280;33753;52.912;-7.342;2023-04-27T12:08:30;99515.72;;;14.81;100.00
47985;BME280;33753;52.912;-7.342;2023-04-27T12:10:58;99521.47;;;14.91;100.00
47985;BME280;33753;52.912;-7.342;2023-04-27T12:13:26;99517.63;;;14.99;100.00
47985;BME280;33753;52.912;-7.342;2023-04-27T12:15:56;99514.13;;;15.17;100.00
47985;BME280;33753;52.912;-7.342;2023-04-27T12:18:26;99516.25;;;15.33;100.00
47985;BME280;33753;52.912;-7.342;2023-04-27T12:20:55;99499.22;;;15.38;100.00
47985;BME280;33753;52.912;-7.342;2023-04-27T12:23:28;99511.13;;;15.44;100.00
47985;BME280;33753;52.912;-7.342;2023-04-27T12:25:56;99505.13;;;15.53;100.00
47985;BME280;33753;52.912;-7.342;2023-04-27T12:28:24;99511.03;;;15.50;100.00
47985;BME280;33753;52.912;-7.342;2023-04-27T12:30:56;99512.38;;;15.23;100.00
47985;BME280;33753;52.912;-7.342;2023-04-27T12:33:24;99504.63;;;15.45;100.00
47985;BME280;33753;52.912;-7.342;2023-04-27T12:35:52;99492.50;;;15.41;100.00
47985;BME280;33753;52.912;-7.342;2023-04-27T12:38:21;99493.03;;;15.31;100.00
47985;BME280;33753;52.912;-7.342;2023-04-27T12:40:49;99482.47;;;15.34;100.00
47985;BME280;33753;52.912;-7.342;2023-04-27T12:43:17;99486.72;;;15.30;100.00
47985;BME280;33753;52.912;-7.342;2023-04-27T12:45:45;99494.00;;;15.55;100.00
47985;BME280;33753;52.912;-7.342;2023-04-27T12:48:15;99491.09;;;15.87;100.00
47985;BME280;33753;52.912;-7.342;2023-04-27T12:50:44;99487.00;;;15.78;100.00
47985;BME280;33753;52.912;-7.342;2023-04-27T12:53:12;99489.16;;;15.38;100.00
47985;BME280;33753;52.912;-7.342;2023-04-27T12:55:40;99496.22;;;15.46;100.00